sensor_id;sensor_type;location;lat;lon;timestamp;P1;durP1;ratioP1;P2;durP2;ratioP2
12048;SDS011;6085;49.452;8.502;2024-03-08T00:00:56;5.43;;;3.95;;
12048;SDS011;6085;49.452;8.502;2024-03-08T00:04:59;6.32;;;3.88;;
12048;SDS011;6085;49.452;8.502;2024-03-08T00:09:01;7.10;;;4.55;;
12048;SDS011;6085;49.452;8.502;2024-03-08T00:13:03;4.35;;;3.15;;
12048;SDS011;6085;49.452;8.502;2024-03-08T00:17:06;7.43;;;4.75;;
12048;SDS011;6085;49.452;8.502;2024-03-08T00:21:10;6.70;;;4.45;;
12048;SDS011;6085;49.452;8.502;2024-03-08T00:25:12;7.95;;;4.53;;
12048;SDS011;6085;49.452;8.502;2024-03-08T00:29:14;7.38;;;4.40;;
12048;SDS011;6085;49.452;8.502;2024-03-08T00:33:16;7.45;;;4.50;;
12048;SDS011;6085;49.452;8.502;2024-03-08T00:37:19;7.10;;;4.65;;
12048;SDS011;6085;49.452;8.502;2024-03-08T00:41:22;5.43;;;3.50;;
12048;SDS011;6085;49.452;8.502;2024-03-08T00:45:26;5.45;;;4.50;;
12048;SDS011;6085;49.452;8.502;2024-03-08T00:49:28;5.72;;;4.47;;
12048;SDS011;6085;49.452;8.502;2024-03-08T00:53:31;5.15;;;3.90;;
12048;SDS011;6085;49.452;8.502;2024-03-08T00:57:33;7.60;;;3.60;;
12048;SDS011;6085;49.452;8.502;2024-03-08T01:01:35;6.93;;;4.30;;
12048;SDS011;6085;49.452;8.502;2024-03-08T01:05:37;7.95;;;4.13;;
12048;SDS011;6085;49.452;8.502;2024-03-08T01:09:40;8.10;;;3.92;;
12048;SDS011;6085;49.452;8.502;2024-03-08T01:13:42;8.13;;;4.63;;
12048;SDS011;6085;49.452;8.502;2024-03-08T01:17:44;7.30;;;3.95;;
12048;SDS011;6085;49.452;8.502;2024-03-08T01:21:46;6.70;;;4.38;;
12048;SDS011;6085;49.452;8.502;2024-03-08T01:25:49;7.63;;;4.13;;
12048;SDS011;6085;49.452;8.502;2024-03-08T01:29:56;6.95;;;3.35;;
12048;SDS011;6085;49.452;8.502;2024-03-08T01:33:59;10.07;;;3.92;;
12048;SDS011;6085;49.452;8.502;2024-03-08T01:38:01;4.25;;;3.53;;
12048;SDS011;6085;49.452;8.502;2024-03-08T01:42:06;6.60;;;4.75;;
12048;SDS011;6085;49.452;8.502;2024-03-08T01:46:08;6.35;;;3.33;;
12048;SDS011;6085;49.452;8.502;2024-03-08T01:50:12;6.13;;;4.65;;
12048;SDS011;6085;49.452;8.502;2024-03-08T01:54:16;6.47;;;3.97;;
12048;SDS011;6085;49.452;8.502;2024-03-08T01:58:21;8.02;;;4.82;;
12048;SDS011;6085;49.452;8.502;2024-03-08T02:02:24;5.28;;;4.20;;
12048;SDS011;6085;49.452;8.502;2024-03-08T02:06:27;5.45;;;4.50;;
12048;SDS011;6085;49.452;8.502;2024-03-08T02:10:29;6.53;;;4.60;;
12048;SDS011;6085;49.452;8.502;2024-03-08T02:14:33;5.30;;;4.10;;
12048;SDS011;6085;49.452;8.502;2024-03-08T02:18:36;6.30;;;3.92;;
12048;SDS011;6085;49.452;8.502;2024-03-08T02:22:40;6.70;;;3.88;;
12048;SDS011;6085;49.452;8.502;2024-03-08T02:26:43;6.32;;;4.07;;
12048;SDS011;6085;49.452;8.502;2024-03-08T02:30:45;5.80;;;4.18;;
12048;SDS011;6085;49.452;8.502;2024-03-08T02:34:47;7.00;;;4.93;;
12048;SDS011;6085;49.452;8.502;2024-03-08T02:38:51;6.75;;;4.18;;
12048;SDS011;6085;49.452;8.502;2024-03-08T02:42:52;5.35;;;3.25;;
12048;SDS011;6085;49.452;8.502;2024-03-08T02:46:54;4.93;;;3.58;;
12048;SDS011;6085;49.452;8.502;2024-03-08T02:50:56;7.45;;;4.47;;
12048;SDS011;6085;49.452;8.502;2024-03-08T02:54:59;7.72;;;4.22;;
12048;SDS011;6085;49.452;8.502;2024-03-08T02:59:01;4.43;;;3.00;;
12048;SDS011;6085;49.452;8.502;2024-03-08T03:03:03;8.20;;;4.38;;
12048;SDS011;6085;49.452;8.502;2024-03-08T03:07:06;5.25;;;4.03;;
12048;SDS011;6085;49.452;8.502;2024-03-08T03:11:09;5.38;;;4.00;;
12048;SDS011;6085;49.452;8.502;2024-03-08T03:15:13;4.38;;;3.35;;
12048;SDS011;6085;49.452;8.502;2024-03-08T03:19:16;7.25;;;3.65;;
12048;SDS011;6085;49.452;8.502;2024-03-08T03:23:18;7.80;;;4.15;;
12048;SDS011;6085;49.452;8.502;2024-03-08T03:27:22;4.13;;;3.72;;
12048;SDS011;6085;49.452;8.502;2024-03-08T03:31:24;5.15;;;3.60;;
12048;SDS011;6085;49.452;8.502;2024-03-08T03:35:26;4.45;;;4.05;;
12048;SDS011;6085;49.452;8.502;2024-03-08T03:39:30;7.05;;;4.25;;
12048;SDS011;6085;49.452;8.502;2024-03-08T03:43:34;5.03;;;3.35;;
12048;SDS011;6085;49.452;8.502;2024-03-08T03:52:32;6.20;;;3.65;;
12048;SDS011;6085;49.452;8.502;2024-03-08T03:56:34;5.97;;;3.55;;
12048;SDS011;6085;49.452;8.502;2024-03-08T04:00:37;5.80;;;4.30;;
12048;SDS011;6085;49.452;8.502;2024-03-08T04:04:40;6.22;;;3.72;;
12048;SDS011;6085;49.452;8.502;2024-03-08T04:08:42;5.65;;;3.28;;
12048;SDS011;6085;49.452;8.502;2024-03-08T04:12:45;7.85;;;4.72;;
12048;SDS011;6085;49.452;8.502;2024-03-08T04:16:48;8.48;;;4.35;;
12048;SDS011;6085;49.452;8.502;2024-03-08T04:20:50;5.30;;;4.05;;
12048;SDS011;6085;49.452;8.502;2024-03-08T04:24:52;7.57;;;3.50;;
12048;SDS011;6085;49.452;8.502;2024-03-08T04:28:54;6.32;;;3.88;;
12048;SDS011;6085;49.452;8.502;2024-03-08T04:32:57;5.38;;;3.50;;
12048;SDS011;6085;49.452;8.502;2024-03-08T04:37:00;6.47;;;3.70;;
12048;SDS011;6085;49.452;8.502;2024-03-08T04:41:02;6.80;;;4.32;;
12048;SDS011;6085;49.452;8.502;2024-03-08T04:45:04;6.43;;;4.10;;
12048;SDS011;6085;49.452;8.502;2024-03-08T04:49:09;6.85;;;4.15;;
12048;SDS011;6085;49.452;8.502;2024-03-08T04:53:11;5.53;;;3.78;;
12048;SDS011;6085;49.452;8.502;2024-03-08T04:57:13;5.38;;;3.75;;
12048;SDS011;6085;49.452;8.502;2024-03-08T05:01:18;6.93;;;4.20;;
12048;SDS011;6085;49.452;8.502;2024-03-08T05:05:21;5.30;;;3.40;;
12048;SDS011;6085;49.452;8.502;2024-03-08T05:09:23;7.15;;;4.20;;
12048;SDS011;6085;49.452;8.502;2024-03-08T05:13:25;6.78;;;4.47;;
12048;SDS011;6085;49.452;8.502;2024-03-08T05:17:27;6.68;;;3.90;;
12048;SDS011;6085;49.452;8.502;2024-03-08T05:21:31;6.05;;;4.82;;
12048;SDS011;6085;49.452;8.502;2024-03-08T05:25:33;6.18;;;3.75;;
12048;SDS011;6085;49.452;8.502;2024-03-08T05:29:36;5.70;;;3.65;;
12048;SDS011;6085;49.452;8.502;2024-03-08T05:33:38;9.48;;;4.95;;
12048;SDS011;6085;49.452;8.502;2024-03-08T05:37:41;5.35;;;3.53;;
12048;SDS011;6085;49.452;8.502;2024-03-08T05:41:43;6.78;;;3.85;;
12048;SDS011;6085;49.452;8.502;2024-03-08T05:45:45;6.88;;;4.20;;
12048;SDS011;6085;49.452;8.502;2024-03-08T05:49:47;7.20;;;4.68;;
12048;SDS011;6085;49.452;8.502;2024-03-08T05:53:50;7.95;;;4.93;;
12048;SDS011;6085;49.452;8.502;2024-03-08T05:57:53;5.03;;;3.80;;
12048;SDS011;6085;49.452;8.502;2024-03-08T06:01:56;6.18;;;4.32;;
12048;SDS011;6085;49.452;8.502;2024-03-08T06:05:58;5.45;;;4.13;;
12048;SDS011;6085;49.452;8.502;2024-03-08T06:10:02;8.75;;;4.57;;
12048;SDS011;6085;49.452;8.502;2024-03-08T06:14:04;5.78;;;4.30;;
12048;SDS011;6085;49.452;8.502;2024-03-08T06:18:06;7.40;;;3.63;;
12048;SDS011;6085;49.452;8.502;2024-03-08T06:22:10;6.55;;;3.55;;
12048;SDS011;6085;49.452;8.502;2024-03-08T06:26:15;5.78;;;4.22;;
12048;SDS011;6085;49.452;8.502;2024-03-08T06:30:17;8.23;;;4.00;;
12048;SDS011;6085;49.452;8.502;2024-03-08T06:34:20;7.88;;;4.63;;
12048;SDS011;6085;49.452;8.502;2024-03-08T06:38:22;7.93;;;4.38;;
12048;SDS011;6085;49.452;8.502;2024-03-08T06:42:25;5.65;;;4.35;;
12048;SDS011;6085;49.452;8.502;2024-03-08T06:46:27;7.53;;;4.45;;
12048;SDS011;6085;49.452;8.502;2024-03-08T06:50:29;9.23;;;5.05;;
12048;SDS011;6085;49.452;8.502;2024-03-08T06:54:32;4.85;;;3.53;;
12048;SDS011;6085;49.452;8.502;2024-03-08T06:58:37;6.90;;;4.35;;
12048;SDS011;6085;49.452;8.502;2024-03-08T07:02:40;6.88;;;4.10;;
12048;SDS011;6085;49.452;8.502;2024-03-08T07:06:42;6.68;;;4.35;;
12048;SDS011;6085;49.452;8.502;2024-03-08T07:10:43;11.10;;;5.15;;
12048;SDS011;6085;49.452;8.502;2024-03-08T07:14:47;7.10;;;4.15;;
12048;SDS011;6085;49.452;8.502;2024-03-08T07:18:49;7.18;;;4.88;;
12048;SDS011;6085;49.452;8.502;2024-03-08T07:22:52;6.88;;;4.18;;
12048;SDS011;6085;49.452;8.502;2024-03-08T07:26:54;5.93;;;4.75;;
12048;SDS011;6085;49.452;8.502;2024-03-08T07:30:58;9.32;;;5.18;;
12048;SDS011;6085;49.452;8.502;2024-03-08T07:35:21;7.03;;;4.28;;
12048;SDS011;6085;49.452;8.502;2024-03-08T07:39:23;9.63;;;4.95;;
12048;SDS011;6085;49.452;8.502;2024-03-08T07:43:25;6.53;;;4.72;;
12048;SDS011;6085;49.452;8.502;2024-03-08T07:47:28;10.25;;;4.47;;
12048;SDS011;6085;49.452;8.502;2024-03-08T07:51:32;11.68;;;5.82;;
12048;SDS011;6085;49.452;8.502;2024-03-08T07:55:35;5.35;;;4.28;;
12048;SDS011;6085;49.452;8.502;2024-03-08T07:59:37;7.03;;;4.70;;
12048;SDS011;6085;49.452;8.502;2024-03-08T08:03:41;8.18;;;4.97;;
12048;SDS011;6085;49.452;8.502;2024-03-08T08:07:43;9.05;;;4.80;;
12048;SDS011;6085;49.452;8.502;2024-03-08T08:11:46;8.15;;;4.82;;
12048;SDS011;6085;49.452;8.502;2024-03-08T08:15:48;7.85;;;4.20;;
12048;SDS011;6085;49.452;8.502;2024-03-08T08:19:51;9.63;;;4.85;;
12048;SDS011;6085;49.452;8.502;2024-03-08T08:23:53;8.40;;;4.72;;
12048;SDS011;6085;49.452;8.502;2024-03-08T08:27:56;10.95;;;7.10;;
12048;SDS011;6085;49.452;8.502;2024-03-08T08:31:57;8.05;;;4.93;;
12048;SDS011;6085;49.452;8.502;2024-03-08T08:36:01;5.30;;;4.65;;
12048;SDS011;6085;49.452;8.502;2024-03-08T08:40:04;7.78;;;5.10;;
12048;SDS011;6085;49.452;8.502;2024-03-08T08:44:13;8.32;;;4.95;;
12048;SDS011;6085;49.452;8.502;2024-03-08T08:48:17;6.38;;;4.72;;
12048;SDS011;6085;49.452;8.502;2024-03-08T08:52:20;8.00;;;5.82;;
12048;SDS011;6085;49.452;8.502;2024-03-08T08:56:23;8.80;;;5.28;;
12048;SDS011;6085;49.452;8.502;2024-03-08T09:00:26;7.45;;;5.10;;
12048;SDS011;6085;49.452;8.502;2024-03-08T09:04:28;9.70;;;5.40;;
12048;SDS011;6085;49.452;8.502;2024-03-08T09:08:32;10.85;;;5.93;;
12048;SDS011;6085;49.452;8.502;2024-03-08T09:12:34;8.40;;;5.20;;
12048;SDS011;6085;49.452;8.502;2024-03-08T09:16:36;7.20;;;4.88;;
12048;SDS011;6085;49.452;8.502;2024-03-08T09:20:38;6.88;;;5.15;;
12048;SDS011;6085;49.452;8.502;2024-03-08T09:24:42;7.57;;;5.13;;
12048;SDS011;6085;49.452;8.502;2024-03-08T09:28:44;7.72;;;5.43;;
12048;SDS011;6085;49.452;8.502;2024-03-08T09:32:46;8.23;;;5.68;;
12048;SDS011;6085;49.452;8.502;2024-03-08T09:36:48;9.50;;;5.45;;
12048;SDS011;6085;49.452;8.502;2024-03-08T09:40:53;6.68;;;5.05;;
12048;SDS011;6085;49.452;8.502;2024-03-08T09:44:57;7.15;;;4.95;;
12048;SDS011;6085;49.452;8.502;2024-03-08T09:48:59;10.07;;;5.88;;
12048;SDS011;6085;49.452;8.502;2024-03-08T09:53:01;8.07;;;5.13;;
12048;SDS011;6085;49.452;8.502;2024-03-08T09:57:04;7.13;;;4.90;;
12048;SDS011;6085;49.452;8.502;2024-03-08T10:01:09;8.55;;;5.15;;
12048;SDS011;6085;49.452;8.502;2024-03-08T10:05:12;7.78;;;5.25;;
12048;SDS011;6085;49.452;8.502;2024-03-08T10:09:14;9.57;;;5.63;;
12048;SDS011;6085;49.452;8.502;2024-03-08T10:13:18;9.70;;;5.97;;
12048;SDS011;6085;49.452;8.502;2024-03-08T10:17:20;9.48;;;5.05;;
12048;SDS011;6085;49.452;8.502;2024-03-08T10:21:22;9.77;;;5.00;;
12048;SDS011;6085;49.452;8.502;2024-03-08T10:25:25;8.63;;;5.25;;
12048;SDS011;6085;49.452;8.502;2024-03-08T10:29:28;7.15;;;4.80;;
12048;SDS011;6085;49.452;8.502;2024-03-08T10:33:30;5.70;;;4.40;;
12048;SDS011;6085;49.452;8.502;2024-03-08T10:37:32;10.27;;;5.47;;
12048;SDS011;6085;49.452;8.502;2024-03-08T10:41:34;7.57;;;4.07;;
12048;SDS011;6085;49.452;8.502;2024-03-08T10:45:40;7.07;;;4.57;;
12048;SDS011;6085;49.452;8.502;2024-03-08T10:49:44;7.53;;;4.75;;
12048;SDS011;6085;49.452;8.502;2024-03-08T10:53:52;6.43;;;4.82;;
12048;SDS011;6085;49.452;8.502;2024-03-08T10:57:56;7.72;;;4.57;;
12048;SDS011;6085;49.452;8.502;2024-03-08T11:02:00;6.22;;;4.82;;
12048;SDS011;6085;49.452;8.502;2024-03-08T11:06:02;6.90;;;5.38;;
12048;SDS011;6085;49.452;8.502;2024-03-08T11:10:05;7.10;;;5.25;;
12048;SDS011;6085;49.452;8.502;2024-03-08T11:18:48;6.72;;;4.28;;
12048;SDS011;6085;49.452;8.502;2024-03-08T11:22:52;6.53;;;4.65;;
12048;SDS011;6085;49.452;8.502;2024-03-08T11:26:56;8.23;;;5.35;;
12048;SDS011;6085;49.452;8.502;2024-03-08T11:35:26;9.68;;;4.78;;
12048;SDS011;6085;49.452;8.502;2024-03-08T11:39:27;6.57;;;5.20;;
12048;SDS011;6085;49.452;8.502;2024-03-08T11:43:30;7.20;;;5.18;;
12048;SDS011;6085;49.452;8.502;2024-03-08T11:47:33;8.02;;;5.30;;
12048;SDS011;6085;49.452;8.502;2024-03-08T11:51:41;8.55;;;5.07;;
12048;SDS011;6085;49.452;8.502;2024-03-08T11:55:43;7.65;;;5.45;;
12048;SDS011;6085;49.452;8.502;2024-03-08T11:59:49;7.90;;;4.97;;
12048;SDS011;6085;49.452;8.502;2024-03-08T12:03:52;6.50;;;5.32;;
12048;SDS011;6085;49.452;8.502;2024-03-08T12:07:57;8.77;;;5.82;;
12048;SDS011;6085;49.452;8.502;2024-03-08T12:11:59;8.48;;;5.63;;
12048;SDS011;6085;49.452;8.502;2024-03-08T12:16:01;7.85;;;5.10;;
12048;SDS011;6085;49.452;8.502;2024-03-08T12:20:11;8.07;;;5.65;;
12048;SDS011;6085;49.452;8.502;2024-03-08T12:24:16;7.47;;;4.72;;
12048;SDS011;6085;49.452;8.502;2024-03-08T12:28:19;7.60;;;4.95;;
12048;SDS011;6085;49.452;8.502;2024-03-08T12:32:21;7.15;;;5.30;;
12048;SDS011;6085;49.452;8.502;2024-03-08T12:36:24;8.45;;;5.70;;
12048;SDS011;6085;49.452;8.502;2024-03-08T12:40:28;8.95;;;5.45;;
12048;SDS011;6085;49.452;8.502;2024-03-08T12:44:31;6.85;;;5.28;;
12048;SDS011;6085;49.452;8.502;2024-03-08T12:48:34;7.55;;;5.63;;
12048;SDS011;6085;49.452;8.502;2024-03-08T12:52:36;8.35;;;5.03;;
12048;SDS011;6085;49.452;8.502;2024-03-08T12:56:40;8.48;;;4.60;;
12048;SDS011;6085;49.452;8.502;2024-03-08T13:00:42;8.75;;;5.68;;
12048;SDS011;6085;49.452;8.502;2024-03-08T13:04:43;8.68;;;5.57;;
12048;SDS011;6085;49.452;8.502;2024-03-08T13:08:45;8.15;;;5.75;;
12048;SDS011;6085;49.452;8.502;2024-03-08T13:12:49;9.32;;;6.00;;
12048;SDS011;6085;49.452;8.502;2024-03-08T13:16:53;9.13;;;5.72;;
12048;SDS011;6085;49.452;8.502;2024-03-08T13:20:55;8.43;;;5.10;;
12048;SDS011;6085;49.452;8.502;2024-03-08T13:24:57;8.27;;;5.63;;
12048;SDS011;6085;49.452;8.502;2024-03-08T13:29:02;9.20;;;5.85;;
12048;SDS011;6085;49.452;8.502;2024-03-08T13:33:06;11.02;;;5.22;;
12048;SDS011;6085;49.452;8.502;2024-03-08T13:37:08;8.50;;;5.15;;
12048;SDS011;6085;49.452;8.502;2024-03-08T13:41:11;10.90;;;5.60;;
12048;SDS011;6085;49.452;8.502;2024-03-08T13:45:16;7.60;;;4.60;;
12048;SDS011;6085;49.452;8.502;2024-03-08T13:49:22;7.75;;;4.85;;
12048;SDS011;6085;49.452;8.502;2024-03-08T13:53:26;9.00;;;5.57;;
12048;SDS011;6085;49.452;8.502;2024-03-08T13:57:27;7.20;;;4.97;;
12048;SDS011;6085;49.452;8.502;2024-03-08T14:01:31;7.53;;;4.88;;
12048;SDS011;6085;49.452;8.502;2024-03-08T14:05:38;8.30;;;5.30;;
12048;SDS011;6085;49.452;8.502;2024-03-08T14:09:40;9.25;;;5.65;;
12048;SDS011;6085;49.452;8.502;2024-03-08T14:13:43;6.55;;;4.60;;
12048;SDS011;6085;49.452;8.502;2024-03-08T14:17:53;8.77;;;5.15;;
12048;SDS011;6085;49.452;8.502;2024-03-08T14:21:55;8.18;;;4.88;;
12048;SDS011;6085;49.452;8.502;2024-03-08T14:25:59;7.30;;;4.75;;
12048;SDS011;6085;49.452;8.502;2024-03-08T14:30:01;8.15;;;4.68;;
12048;SDS011;6085;49.452;8.502;2024-03-08T14:34:04;8.38;;;5.80;;
12048;SDS011;6085;49.452;8.502;2024-03-08T14:38:07;8.02;;;5.03;;
12048;SDS011;6085;49.452;8.502;2024-03-08T14:42:10;7.28;;;4.93;;
12048;SDS011;6085;49.452;8.502;2024-03-08T14:46:14;7.28;;;4.93;;
12048;SDS011;6085;49.452;8.502;2024-03-08T14:50:19;7.45;;;4.60;;
12048;SDS011;6085;49.452;8.502;2024-03-08T14:54:22;7.75;;;5.43;;
12048;SDS011;6085;49.452;8.502;2024-03-08T14:58:24;7.80;;;4.22;;
12048;SDS011;6085;49.452;8.502;2024-03-08T15:02:27;6.43;;;4.80;;
12048;SDS011;6085;49.452;8.502;2024-03-08T15:06:31;7.72;;;5.32;;
12048;SDS011;6085;49.452;8.502;2024-03-08T15:10:33;7.20;;;4.32;;
12048;SDS011;6085;49.452;8.502;2024-03-08T15:14:38;7.20;;;4.57;;
12048;SDS011;6085;49.452;8.502;2024-03-08T15:18:43;7.50;;;5.05;;
12048;SDS011;6085;49.452;8.502;2024-03-08T15:22:48;7.60;;;4.88;;
12048;SDS011;6085;49.452;8.502;2024-03-08T15:26:52;8.18;;;4.55;;
12048;SDS011;6085;49.452;8.502;2024-03-08T15:30:55;7.43;;;4.80;;
12048;SDS011;6085;49.452;8.502;2024-03-08T15:35:05;6.45;;;4.97;;
12048;SDS011;6085;49.452;8.502;2024-03-08T15:39:09;8.75;;;5.20;;
12048;SDS011;6085;49.452;8.502;2024-03-08T15:43:11;6.45;;;4.57;;
12048;SDS011;6085;49.452;8.502;2024-03-08T15:47:16;7.22;;;5.22;;
12048;SDS011;6085;49.452;8.502;2024-03-08T15:51:19;5.97;;;4.05;;
12048;SDS011;6085;49.452;8.502;2024-03-08T15:55:22;5.82;;;4.57;;
12048;SDS011;6085;49.452;8.502;2024-03-08T15:59:25;9.00;;;5.45;;
12048;SDS011;6085;49.452;8.502;2024-03-08T16:03:28;8.00;;;4.28;;
12048;SDS011;6085;49.452;8.502;2024-03-08T16:07:31;7.65;;;4.93;;
12048;SDS011;6085;49.452;8.502;2024-03-08T16:11:34;7.88;;;4.63;;
12048;SDS011;6085;49.452;8.502;2024-03-08T16:15:39;8.98;;;4.50;;
12048;SDS011;6085;49.452;8.502;2024-03-08T16:19:41;6.93;;;4.88;;
12048;SDS011;6085;49.452;8.502;2024-03-08T16:23:43;6.53;;;4.53;;
12048;SDS011;6085;49.452;8.502;2024-03-08T16:27:48;7.38;;;4.95;;
12048;SDS011;6085;49.452;8.502;2024-03-08T16:31:50;7.18;;;4.75;;
12048;SDS011;6085;49.452;8.502;2024-03-08T16:35:53;8.00;;;4.68;;
12048;SDS011;6085;49.452;8.502;2024-03-08T16:39:54;7.95;;;4.40;;
12048;SDS011;6085;49.452;8.502;2024-03-08T16:44:00;8.05;;;4.72;;
12048;SDS011;6085;49.452;8.502;2024-03-08T16:48:04;6.32;;;3.72;;
12048;SDS011;6085;49.452;8.502;2024-03-08T16:52:07;8.23;;;5.03;;
12048;SDS011;6085;49.452;8.502;2024-03-08T16:56:10;6.82;;;4.28;;
12048;SDS011;6085;49.452;8.502;2024-03-08T17:00:16;8.73;;;4.78;;
12048;SDS011;6085;49.452;8.502;2024-03-08T17:04:22;8.35;;;4.68;;
12048;SDS011;6085;49.452;8.502;2024-03-08T17:08:26;9.13;;;5.55;;
12048;SDS011;6085;49.452;8.502;2024-03-08T17:12:28;6.05;;;4.70;;
12048;SDS011;6085;49.452;8.502;2024-03-08T17:16:31;7.13;;;4.03;;
12048;SDS011;6085;49.452;8.502;2024-03-08T17:20:36;6.13;;;5.00;;
12048;SDS011;6085;49.452;8.502;2024-03-08T17:24:38;8.32;;;4.43;;
12048;SDS011;6085;49.452;8.502;2024-03-08T17:28:40;7.85;;;4.28;;
12048;SDS011;6085;49.452;8.502;2024-03-08T17:32:44;9.68;;;5.60;;
12048;SDS011;6085;49.452;8.502;2024-03-08T17:36:48;6.70;;;4.63;;
12048;SDS011;6085;49.452;8.502;2024-03-08T17:40:52;5.72;;;4.30;;
12048;SDS011;6085;49.452;8.502;2024-03-08T17:44:54;6.15;;;4.70;;
12048;SDS011;6085;49.452;8.502;2024-03-08T17:49:00;7.38;;;4.00;;
12048;SDS011;6085;49.452;8.502;2024-03-08T17:53:03;6.30;;;4.13;;
12048;SDS011;6085;49.452;8.502;2024-03-08T17:57:05;6.53;;;4.43;;
12048;SDS011;6085;49.452;8.502;2024-03-08T18:01:07;6.25;;;4.72;;
12048;SDS011;6085;49.452;8.502;2024-03-08T18:05:13;7.05;;;4.50;;
12048;SDS011;6085;49.452;8.502;2024-03-08T18:09:15;8.07;;;4.25;;
12048;SDS011;6085;49.452;8.502;2024-03-08T18:13:23;7.28;;;4.75;;
12048;SDS011;6085;49.452;8.502;2024-03-08T18:17:24;5.65;;;3.85;;
12048;SDS011;6085;49.452;8.502;2024-03-08T18:21:29;7.28;;;4.93;;
12048;SDS011;6085;49.452;8.502;2024-03-08T18:25:31;6.88;;;4.07;;
12048;SDS011;6085;49.452;8.502;2024-03-08T18:29:34;5.93;;;4.10;;
12048;SDS011;6085;49.452;8.502;2024-03-08T18:33:35;5.55;;;3.70;;
12048;SDS011;6085;49.452;8.502;2024-03-08T18:37:39;8.27;;;4.68;;
12048;SDS011;6085;49.452;8.502;2024-03-08T18:41:41;6.80;;;4.22;;
12048;SDS011;6085;49.452;8.502;2024-03-08T18:45:43;6.45;;;4.55;;
12048;SDS011;6085;49.452;8.502;2024-03-08T18:49:45;7.93;;;4.70;;
12048;SDS011;6085;49.452;8.502;2024-03-08T18:53:48;6.55;;;4.32;;
12048;SDS011;6085;49.452;8.502;2024-03-08T18:57:52;7.45;;;4.40;;
12048;SDS011;6085;49.452;8.502;2024-03-08T19:01:57;4.40;;;3.38;;
12048;SDS011;6085;49.452;8.502;2024-03-08T19:05:59;6.95;;;3.58;;
12048;SDS011;6085;49.452;8.502;2024-03-08T19:10:03;6.70;;;4.50;;
12048;SDS011;6085;49.452;8.502;2024-03-08T19:14:07;4.80;;;3.35;;
12048;SDS011;6085;49.452;8.502;2024-03-08T19:18:09;6.35;;;3.90;;
12048;SDS011;6085;49.452;8.502;2024-03-08T19:22:13;5.28;;;3.67;;
12048;SDS011;6085;49.452;8.502;2024-03-08T19:26:17;7.57;;;3.40;;
12048;SDS011;6085;49.452;8.502;2024-03-08T19:30:22;4.10;;;3.25;;
12048;SDS011;6085;49.452;8.502;2024-03-08T19:34:27;6.07;;;4.00;;
12048;SDS011;6085;49.452;8.502;2024-03-08T19:38:29;6.03;;;4.35;;
12048;SDS011;6085;49.452;8.502;2024-03-08T19:42:33;4.75;;;3.47;;
12048;SDS011;6085;49.452;8.502;2024-03-08T19:46:36;6.82;;;4.13;;
12048;SDS011;6085;49.452;8.502;2024-03-08T19:50:41;5.13;;;3.28;;
12048;SDS011;6085;49.452;8.502;2024-03-08T19:54:43;3.08;;;2.65;;
12048;SDS011;6085;49.452;8.502;2024-03-08T19:58:46;6.22;;;3.35;;
12048;SDS011;6085;49.452;8.502;2024-03-08T20:02:48;3.90;;;2.45;;
12048;SDS011;6085;49.452;8.502;2024-03-08T20:06:52;4.55;;;3.30;;
12048;SDS011;6085;49.452;8.502;2024-03-08T20:10:57;5.57;;;2.90;;
12048;SDS011;6085;49.452;8.502;2024-03-08T20:15:05;3.17;;;2.17;;
12048;SDS011;6085;49.452;8.502;2024-03-08T20:19:08;2.45;;;2.17;;
12048;SDS011;6085;49.452;8.502;2024-03-08T20:23:11;2.97;;;2.25;;
12048;SDS011;6085;49.452;8.502;2024-03-08T20:27:13;2.83;;;2.45;;
12048;SDS011;6085;49.452;8.502;2024-03-08T20:31:17;2.67;;;2.30;;
12048;SDS011;6085;49.452;8.502;2024-03-08T20:35:18;3.67;;;2.72;;
12048;SDS011;6085;49.452;8.502;2024-03-08T20:39:21;2.60;;;2.15;;
12048;SDS011;6085;49.452;8.502;2024-03-08T20:43:22;4.95;;;2.88;;
12048;SDS011;6085;49.452;8.502;2024-03-08T20:47:26;4.30;;;2.83;;
12048;SDS011;6085;49.452;8.502;2024-03-08T20:51:28;3.88;;;2.60;;
12048;SDS011;6085;49.452;8.502;2024-03-08T20:55:30;3.75;;;2.38;;
12048;SDS011;6085;49.452;8.502;2024-03-08T20:59:32;2.17;;;1.98;;
12048;SDS011;6085;49.452;8.502;2024-03-08T21:03:35;2.22;;;2.03;;
12048;SDS011;6085;49.452;8.502;2024-03-08T21:07:37;4.82;;;2.45;;
12048;SDS011;6085;49.452;8.502;2024-03-08T21:11:39;3.45;;;2.42;;
12048;SDS011;6085;49.452;8.502;2024-03-08T21:15:41;2.20;;;2.00;;
12048;SDS011;6085;49.452;8.502;2024-03-08T21:19:45;5.00;;;2.53;;
12048;SDS011;6085;49.452;8.502;2024-03-08T21:23:48;3.20;;;2.13;;
12048;SDS011;6085;49.452;8.502;2024-03-08T21:27:49;3.78;;;2.53;;
12048;SDS011;6085;49.452;8.502;2024-03-08T21:31:51;2.58;;;2.35;;
12048;SDS011;6085;49.452;8.502;2024-03-08T21:35:54;3.30;;;1.88;;
12048;SDS011;6085;49.452;8.502;2024-03-08T21:39:59;2.88;;;2.50;;
12048;SDS011;6085;49.452;8.502;2024-03-08T21:44:01;4.55;;;2.33;;
12048;SDS011;6085;49.452;8.502;2024-03-08T21:48:02;3.60;;;2.63;;
12048;SDS011;6085;49.452;8.502;2024-03-08T21:52:06;2.00;;;1.85;;
12048;SDS011;6085;49.452;8.502;2024-03-08T21:56:08;2.03;;;1.83;;
12048;SDS011;6085;49.452;8.502;2024-03-08T22:00:10;5.10;;;3.17;;
12048;SDS011;6085;49.452;8.502;2024-03-08T22:04:13;4.28;;;2.28;;
12048;SDS011;6085;49.452;8.502;2024-03-08T22:08:16;2.75;;;2.17;;
12048;SDS011;6085;49.452;8.502;2024-03-08T22:12:19;2.05;;;1.83;;
12048;SDS011;6085;49.452;8.502;2024-03-08T22:16:21;3.63;;;1.83;;
12048;SDS011;6085;49.452;8.502;2024-03-08T22:20:23;2.38;;;2.10;;
12048;SDS011;6085;49.452;8.502;2024-03-08T22:24:32;2.80;;;1.90;;
12048;SDS011;6085;49.452;8.502;2024-03-08T22:28:34;2.83;;;2.35;;
12048;SDS011;6085;49.452;8.502;2024-03-08T22:32:36;2.35;;;2.03;;
12048;SDS011;6085;49.452;8.502;2024-03-08T22:36:38;2.55;;;2.03;;
12048;SDS011;6085;49.452;8.502;2024-03-08T22:40:41;3.10;;;1.95;;
12048;SDS011;6085;49.452;8.502;2024-03-08T22:44:43;2.17;;;2.00;;
12048;SDS011;6085;49.452;8.502;2024-03-08T22:48:45;2.63;;;1.77;;
12048;SDS011;6085;49.452;8.502;2024-03-08T22:52:48;2.08;;;1.65;;
12048;SDS011;6085;49.452;8.502;2024-03-08T22:56:51;1.85;;;1.67;;
12048;SDS011;6085;49.452;8.502;2024-03-08T23:00:53;2.25;;;2.05;;
12048;SDS011;6085;49.452;8.502;2024-03-08T23:05:02;4.40;;;3.30;;
12048;SDS011;6085;49.452;8.502;2024-03-08T23:09:06;3.33;;;2.80;;
12048;SDS011;6085;49.452;8.502;2024-03-08T23:13:14;4.43;;;2.33;;
12048;SDS011;6085;49.452;8.502;2024-03-08T23:17:16;3.55;;;2.03;;
12048;SDS011;6085;49.452;8.502;2024-03-08T23:21:18;2.33;;;2.13;;
12048;SDS011;6085;49.452;8.502;2024-03-08T23:25:21;1.58;;;1.48;;
12048;SDS011;6085;49.452;8.502;2024-03-08T23:29:28;3.72;;;2.53;;
12048;SDS011;6085;49.452;8.502;2024-03-08T23:33:30;2.65;;;1.85;;
12048;SDS011;6085;49.452;8.502;2024-03-08T23:37:32;3.83;;;2.67;;
12048;SDS011;6085;49.452;8.502;2024-03-08T23:41:34;2.17;;;1.92;;
12048;SDS011;6085;49.452;8.502;2024-03-08T23:45:39;3.83;;;2.03;;
12048;SDS011;6085;49.452;8.502;2024-03-08T23:49:41;3.40;;;1.83;;
12048;SDS011;6085;49.452;8.502;2024-03-08T23:53:43;3.00;;;2.13;;
12048;SDS011;6085;49.452;8.502;2024-03-08T23:57:45;2.55;;;2.10;;
